sensor_id;sensor_type;location;lat;lon;timestamp;pressure;altitude;pressure_sealevel;temperature;humidity
80945;BME280;70400;50.934;11.590;2024-01-30T00:00:24;101520.59;;;3.93;66.26
80945;BME280;70400;50.934;11.590;2024-01-30T00:01:15;101531.88;;;3.94;65.79
80945;BME280;70400;50.934;11.590;2024-01-30T00:02:06;101529.09;;;3.98;65.68
80945;BME280;70400;50.934;11.590;2024-01-30T00:02:57;101524.69;;;3.99;65.54
80945;BME280;70400;50.934;11.590;2024-01-30T00:03:48;101521.44;;;3.94;66.13
80945;BME280;70400;50.934;11.590;2024-01-30T00:04:38;101524.03;;;3.94;66.03
80945;BME280;70400;50.934;11.590;2024-01-30T00:05:29;101521.31;;;3.97;66.23
80945;BME280;70400;50.934;11.590;2024-01-30T00:06:21;101527.13;;;4.03;65.60
80945;BME280;70400;50.934;11.590;2024-01-30T00:07:12;101526.28;;;4.03;66.05
80945;BME280;70400;50.934;11.590;2024-01-30T00:08:03;101523.53;;;4.06;65.63
80945;BME280;70400;50.934;11.590;2024-01-30T00:08:54;101527.00;;;4.06;65.26
80945;BME280;70400;50.934;11.590;2024-01-30T00:09:47;101528.91;;;4.03;65.66
80945;BME280;70400;50.934;11.590;2024-01-30T00:10:38;101528.72;;;4.07;65.89
80945;BME280;70400;50.934;11.590;2024-01-30T00:11:29;101521.66;;;4.09;65.55
80945;BME280;70400;50.934;11.590;2024-01-30T00:12:20;101521.91;;;4.03;65.34
80945;BME280;70400;50.934;11.590;2024-01-30T00:13:11;101522.63;;;4.07;65.23
80945;BME280;70400;50.934;11.590;2024-01-30T00:14:04;101522.88;;;4.01;65.41
80945;BME280;70400;50.934;11.590;2024-01-30T00:14:55;101526.47;;;3.98;65.76
80945;BME280;70400;50.934;11.590;2024-01-30T00:15:46;101526.41;;;4.00;65.65
80945;BME280;70400;50.934;11.590;2024-01-30T00:16:37;101528.06;;;4.02;65.66
80945;BME280;70400;50.934;11.590;2024-01-30T00:17:28;101523.72;;;4.01;65.47
80945;BME280;70400;50.934;11.590;2024-01-30T00:18:21;101519.44;;;4.00;65.46
80945;BME280;70400;50.934;11.590;2024-01-30T00:19:12;101525.53;;;3.99;65.60
80945;BME280;70400;50.934;11.590;2024-01-30T00:20:03;101526.53;;;3.97;65.40
80945;BME280;70400;50.934;11.590;2024-01-30T00:20:56;101523.91;;;3.97;65.56
80945;BME280;70400;50.934;11.590;2024-01-30T00:21:47;101522.84;;;4.02;65.79
80945;BME280;70400;50.934;11.590;2024-01-30T00:22:38;101520.28;;;4.01;65.42
80945;BME280;70400;50.934;11.590;2024-01-30T00:23:28;101524.00;;;3.95;66.03
80945;BME280;70400;50.934;11.590;2024-01-30T00:24:19;101529.88;;;4.00;65.61
80945;BME280;70400;50.934;11.590;2024-01-30T00:25:12;101524.69;;;3.99;65.87
80945;BME280;70400;50.934;11.590;2024-01-30T00:26:03;101526.28;;;4.03;65.66
80945;BME280;70400;50.934;11.590;2024-01-30T00:26:55;101524.78;;;3.97;65.99
80945;BME280;70400;50.934;11.590;2024-01-30T00:27:46;101524.19;;;3.90;66.00
80945;BME280;70400;50.934;11.590;2024-01-30T00:28:38;101521.44;;;3.94;65.85
80945;BME280;70400;50.934;11.590;2024-01-30T00:29:28;101529.22;;;3.95;65.79
80945;BME280;70400;50.934;11.590;2024-01-30T00:30:22;101524.88;;;3.94;65.86
80945;BME280;70400;50.934;11.590;2024-01-30T00:31:12;101521.50;;;3.92;65.92
80945;BME280;70400;50.934;11.590;2024-01-30T00:32:04;101520.53;;;3.95;65.99
80945;BME280;70400;50.934;11.590;2024-01-30T00:32:55;101522.41;;;3.91;66.42
80945;BME280;70400;50.934;11.590;2024-01-30T00:33:46;101516.59;;;3.84;66.52
80945;BME280;70400;50.934;11.590;2024-01-30T00:34:36;101527.09;;;3.83;66.41
80945;BME280;70400;50.934;11.590;2024-01-30T00:35:27;101517.44;;;3.85;66.76
80945;BME280;70400;50.934;11.590;2024-01-30T00:36:20;101516.66;;;3.83;66.45
80945;BME280;70400;50.934;11.590;2024-01-30T00:37:11;101521.03;;;3.82;66.15
80945;BME280;70400;50.934;11.590;2024-01-30T00:38:02;101519.13;;;3.86;66.71
80945;BME280;70400;50.934;11.590;2024-01-30T00:38:53;101520.25;;;3.80;66.43
80945;BME280;70400;50.934;11.590;2024-01-30T00:39:44;101514.22;;;3.78;66.75
80945;BME280;70400;50.934;11.590;2024-01-30T00:40:35;101514.22;;;3.78;67.04
80945;BME280;70400;50.934;11.590;2024-01-30T00:41:26;101514.41;;;3.74;66.70
80945;BME280;70400;50.934;11.590;2024-01-30T00:42:17;101512.47;;;3.79;66.87
80945;BME280;70400;50.934;11.590;2024-01-30T00:43:08;101513.34;;;3.79;67.15
80945;BME280;70400;50.934;11.590;2024-01-30T00:43:59;101511.75;;;3.75;66.98
80945;BME280;70400;50.934;11.590;2024-01-30T00:44:50;101510.06;;;3.74;67.06
80945;BME280;70400;50.934;11.590;2024-01-30T00:45:43;101517.69;;;3.79;66.63
80945;BME280;70400;50.934;11.590;2024-01-30T00:46:34;101512.53;;;3.77;67.09
80945;BME280;70400;50.934;11.590;2024-01-30T00:47:25;101517.94;;;3.73;66.70
80945;BME280;70400;50.934;11.590;2024-01-30T00:48:16;101513.75;;;3.68;66.65
80945;BME280;70400;50.934;11.590;2024-01-30T00:49:09;101512.06;;;3.67;67.12
80945;BME280;70400;50.934;11.590;2024-01-30T00:50:00;101512.09;;;3.66;66.98
80945;BME280;70400;50.934;11.590;2024-01-30T00:50:51;101506.19;;;3.62;67.35
80945;BME280;70400;50.934;11.590;2024-01-30T00:51:42;101511.38;;;3.62;66.87
80945;BME280;70400;50.934;11.590;2024-01-30T00:52:32;101507.16;;;3.60;66.94
80945;BME280;70400;50.934;11.590;2024-01-30T00:53:23;101509.03;;;3.56;67.28
80945;BME280;70400;50.934;11.590;2024-01-30T00:54:14;101514.97;;;3.60;67.16
80945;BME280;70400;50.934;11.590;2024-01-30T00:55:05;101513.16;;;3.62;67.18
80945;BME280;70400;50.934;11.590;2024-01-30T00:55:56;101512.50;;;3.57;67.09
80945;BME280;70400;50.934;11.590;2024-01-30T00:56:47;101516.72;;;3.59;67.46
80945;BME280;70400;50.934;11.590;2024-01-30T00:57:38;101509.81;;;3.58;67.02
80945;BME280;70400;50.934;11.590;2024-01-30T00:58:29;101509.03;;;3.56;67.63
80945;BME280;70400;50.934;11.590;2024-01-30T00:59:20;101510.59;;;3.60;67.64
80945;BME280;70400;50.934;11.590;2024-01-30T01:00:11;101508.00;;;3.60;67.03
80945;BME280;70400;50.934;11.590;2024-01-30T01:01:03;101508.13;;;3.57;67.24
80945;BME280;70400;50.934;11.590;2024-01-30T01:01:54;101503.75;;;3.58;67.09
80945;BME280;70400;50.934;11.590;2024-01-30T01:02:45;101508.97;;;3.58;67.21
80945;BME280;70400;50.934;11.590;2024-01-30T01:03:36;101507.19;;;3.58;67.38
80945;BME280;70400;50.934;11.590;2024-01-30T01:04:27;101500.34;;;3.56;67.28
80945;BME280;70400;50.934;11.590;2024-01-30T01:05:18;101511.69;;;3.55;67.51
80945;BME280;70400;50.934;11.590;2024-01-30T01:06:09;101507.50;;;3.51;68.03
80945;BME280;70400;50.934;11.590;2024-01-30T01:07:00;101501.47;;;3.48;67.75
80945;BME280;70400;50.934;11.590;2024-01-30T01:07:51;101497.31;;;3.44;67.66
80945;BME280;70400;50.934;11.590;2024-01-30T01:08:43;101504.09;;;3.48;67.49
80945;BME280;70400;50.934;11.590;2024-01-30T01:09:33;101503.19;;;3.50;67.79
80945;BME280;70400;50.934;11.590;2024-01-30T01:10:24;101503.38;;;3.45;67.63
80945;BME280;70400;50.934;11.590;2024-01-30T01:11:15;101502.41;;;3.47;67.76
80945;BME280;70400;50.934;11.590;2024-01-30T01:12:06;101504.34;;;3.42;67.94
80945;BME280;70400;50.934;11.590;2024-01-30T01:12:57;101505.84;;;3.48;67.68
80945;BME280;70400;50.934;11.590;2024-01-30T01:13:48;101503.16;;;3.51;67.46
80945;BME280;70400;50.934;11.590;2024-01-30T01:14:39;101507.63;;;3.47;67.76
80945;BME280;70400;50.934;11.590;2024-01-30T01:15:30;101505.13;;;3.44;67.72
80945;BME280;70400;50.934;11.590;2024-01-30T01:16:21;101505.19;;;3.43;67.89
80945;BME280;70400;50.934;11.590;2024-01-30T01:17:12;101498.16;;;3.45;67.58
80945;BME280;70400;50.934;11.590;2024-01-30T01:18:03;101499.75;;;3.49;67.63
80945;BME280;70400;50.934;11.590;2024-01-30T01:18:55;101506.69;;;3.48;67.79
80945;BME280;70400;50.934;11.590;2024-01-30T01:19:46;101498.88;;;3.48;67.76
80945;BME280;70400;50.934;11.590;2024-01-30T01:20:37;101500.59;;;3.50;67.70
80945;BME280;70400;50.934;11.590;2024-01-30T01:21:27;101496.34;;;3.47;67.55
80945;BME280;70400;50.934;11.590;2024-01-30T01:22:18;101499.84;;;3.46;67.92
80945;BME280;70400;50.934;11.590;2024-01-30T01:23:09;101503.38;;;3.45;68.05
80945;BME280;70400;50.934;11.590;2024-01-30T01:24:00;101500.72;;;3.46;68.03
80945;BME280;70400;50.934;11.590;2024-01-30T01:24:51;101493.66;;;3.48;67.56
80945;BME280;70400;50.934;11.590;2024-01-30T01:25:42;101501.44;;;3.50;67.37
80945;BME280;70400;50.934;11.590;2024-01-30T01:26:32;101497.06;;;3.51;67.66
80945;BME280;70400;50.934;11.590;2024-01-30T01:27:26;101504.22;;;3.45;67.90
80945;BME280;70400;50.934;11.590;2024-01-30T01:28:17;101492.94;;;3.45;68.10
80945;BME280;70400;50.934;11.590;2024-01-30T01:29:08;101498.00;;;3.50;67.88
80945;BME280;70400;50.934;11.590;2024-01-30T01:30:03;101492.78;;;3.50;67.79
80945;BME280;70400;50.934;11.590;2024-01-30T01:30:56;101495.59;;;3.43;68.06
80945;BME280;70400;50.934;11.590;2024-01-30T01:31:50;101496.56;;;3.41;68.02
80945;BME280;70400;50.934;11.590;2024-01-30T01:32:43;101496.66;;;3.39;68.31
80945;BME280;70400;50.934;11.590;2024-01-30T01:33:41;101494.22;;;3.35;68.44
80945;BME280;70400;50.934;11.590;2024-01-30T01:34:31;101495.72;;;3.40;68.07
80945;BME280;70400;50.934;11.590;2024-01-30T01:35:23;101499.25;;;3.39;68.48
80945;BME280;70400;50.934;11.590;2024-01-30T01:36:18;101494.03;;;3.39;68.41
80945;BME280;70400;50.934;11.590;2024-01-30T01:37:09;101494.22;;;3.35;68.27
80945;BME280;70400;50.934;11.590;2024-01-30T01:38:00;101490.88;;;3.31;68.39
80945;BME280;70400;50.934;11.590;2024-01-30T01:38:50;101493.41;;;3.33;68.59
80945;BME280;70400;50.934;11.590;2024-01-30T01:39:41;101495.19;;;3.32;68.74
80945;BME280;70400;50.934;11.590;2024-01-30T01:40:32;101490.81;;;3.33;68.07
80945;BME280;70400;50.934;11.590;2024-01-30T01:41:23;101492.56;;;3.32;68.33
80945;BME280;70400;50.934;11.590;2024-01-30T01:42:14;101489.66;;;3.40;68.16
80945;BME280;70400;50.934;11.590;2024-01-30T01:43:05;101490.69;;;3.36;68.42
80945;BME280;70400;50.934;11.590;2024-01-30T01:43:56;101486.25;;;3.38;67.95
80945;BME280;70400;50.934;11.590;2024-01-30T01:44:47;101489.66;;;3.40;68.11
80945;BME280;70400;50.934;11.590;2024-01-30T01:45:38;101484.44;;;3.40;68.16
80945;BME280;70400;50.934;11.590;2024-01-30T01:46:32;101488.81;;;3.39;68.13
80945;BME280;70400;50.934;11.590;2024-01-30T01:47:24;101483.66;;;3.38;68.00
80945;BME280;70400;50.934;11.590;2024-01-30T01:48:15;101485.38;;;3.39;68.05
80945;BME280;70400;50.934;11.590;2024-01-30T01:49:06;101484.31;;;3.43;67.82
80945;BME280;70400;50.934;11.590;2024-01-30T01:49:58;101493.06;;;3.42;67.34
80945;BME280;70400;50.934;11.590;2024-01-30T01:50:49;101488.53;;;3.47;67.38
80945;BME280;70400;50.934;11.590;2024-01-30T01:51:41;101486.72;;;3.49;67.46
80945;BME280;70400;50.934;11.590;2024-01-30T01:52:33;101488.53;;;3.47;67.59
80945;BME280;70400;50.934;11.590;2024-01-30T01:53:25;101491.84;;;3.51;67.67
80945;BME280;70400;50.934;11.590;2024-01-30T01:54:16;101482.38;;;3.48;67.19
80945;BME280;70400;50.934;11.590;2024-01-30T01:55:07;101489.31;;;3.49;67.58
80945;BME280;70400;50.934;11.590;2024-01-30T01:56:01;101487.69;;;3.46;67.44
80945;BME280;70400;50.934;11.590;2024-01-30T01:56:52;101485.28;;;3.40;67.50
80945;BME280;70400;50.934;11.590;2024-01-30T01:57:44;101489.53;;;3.43;67.61
80945;BME280;70400;50.934;11.590;2024-01-30T01:58:35;101482.50;;;3.45;67.74
80945;BME280;70400;50.934;11.590;2024-01-30T01:59:27;101481.22;;;3.33;68.13
80945;BME280;70400;50.934;11.590;2024-01-30T02:00:18;101485.41;;;3.37;67.89
80945;BME280;70400;50.934;11.590;2024-01-30T02:01:11;101486.34;;;3.36;67.94
80945;BME280;70400;50.934;11.590;2024-01-30T02:02:03;101488.81;;;3.39;67.76
80945;BME280;70400;50.934;11.590;2024-01-30T02:02:55;101479.38;;;3.37;67.96
80945;BME280;70400;50.934;11.590;2024-01-30T02:03:47;101482.81;;;3.37;67.67
80945;BME280;70400;50.934;11.590;2024-01-30T02:04:38;101481.22;;;3.33;67.70
80945;BME280;70400;50.934;11.590;2024-01-30T02:05:29;101479.50;;;3.34;67.94
80945;BME280;70400;50.934;11.590;2024-01-30T02:06:20;101485.38;;;3.39;67.58
80945;BME280;70400;50.934;11.590;2024-01-30T02:07:12;101483.53;;;3.41;67.78
80945;BME280;70400;50.934;11.590;2024-01-30T02:08:03;101482.78;;;3.39;67.49
80945;BME280;70400;50.934;11.590;2024-01-30T02:08:54;101474.88;;;3.40;67.28
80945;BME280;70400;50.934;11.590;2024-01-30T02:09:45;101477.78;;;3.33;67.51
80945;BME280;70400;50.934;11.590;2024-01-30T02:10:36;101483.00;;;3.33;68.09
80945;BME280;70400;50.934;11.590;2024-01-30T02:11:28;101480.38;;;3.33;67.59
80945;BME280;70400;50.934;11.590;2024-01-30T02:12:18;101479.50;;;3.34;67.65
80945;BME280;70400;50.934;11.590;2024-01-30T02:13:09;101475.16;;;3.33;67.81
80945;BME280;70400;50.934;11.590;2024-01-30T02:14:04;101475.41;;;3.26;67.91
80945;BME280;70400;50.934;11.590;2024-01-30T02:14:55;101478.75;;;3.30;67.91
80945;BME280;70400;50.934;11.590;2024-01-30T02:15:50;101473.47;;;3.32;67.86
80945;BME280;70400;50.934;11.590;2024-01-30T02:16:42;101474.31;;;3.32;67.61
80945;BME280;70400;50.934;11.590;2024-01-30T02:17:32;101470.88;;;3.32;67.45
80945;BME280;70400;50.934;11.590;2024-01-30T02:18:23;101470.91;;;3.30;67.54
80945;BME280;70400;50.934;11.590;2024-01-30T02:19:14;101476.69;;;3.38;67.09
80945;BME280;70400;50.934;11.590;2024-01-30T02:20:05;101469.78;;;3.37;67.44
80945;BME280;70400;50.934;11.590;2024-01-30T02:20:58;101475.91;;;3.36;67.36
80945;BME280;70400;50.934;11.590;2024-01-30T02:21:52;101474.94;;;3.39;67.37
80945;BME280;70400;50.934;11.590;2024-01-30T02:22:43;101477.59;;;3.37;67.31
80945;BME280;70400;50.934;11.590;2024-01-30T02:23:34;101473.91;;;3.43;67.12
80945;BME280;70400;50.934;11.590;2024-01-30T02:24:25;101474.81;;;3.42;67.38
80945;BME280;70400;50.934;11.590;2024-01-30T02:25:16;101473.91;;;3.43;67.20
80945;BME280;70400;50.934;11.590;2024-01-30T02:26:07;101476.50;;;3.43;67.33
80945;BME280;70400;50.934;11.590;2024-01-30T02:26:58;101475.53;;;3.45;67.29
80945;BME280;70400;50.934;11.590;2024-01-30T02:27:48;101471.41;;;3.40;67.25
80945;BME280;70400;50.934;11.590;2024-01-30T02:28:39;101476.69;;;3.38;67.36
80945;BME280;70400;50.934;11.590;2024-01-30T02:29:30;101473.75;;;3.46;66.84
80945;BME280;70400;50.934;11.590;2024-01-30T02:30:21;101474.69;;;3.45;66.82
80945;BME280;70400;50.934;11.590;2024-01-30T02:31:12;101472.03;;;3.46;67.08
80945;BME280;70400;50.934;11.590;2024-01-30T02:32:03;101480.63;;;3.48;67.07
80945;BME280;70400;50.934;11.590;2024-01-30T02:32:54;101473.75;;;3.46;66.98
80945;BME280;70400;50.934;11.590;2024-01-30T02:33:45;101483.31;;;3.47;66.94
80945;BME280;70400;50.934;11.590;2024-01-30T02:34:36;101479.94;;;3.43;67.02
80945;BME280;70400;50.934;11.590;2024-01-30T02:35:27;101470.88;;;3.32;67.37
80945;BME280;70400;50.934;11.590;2024-01-30T02:36:18;101469.91;;;3.34;67.73
80945;BME280;70400;50.934;11.590;2024-01-30T02:37:09;101471.59;;;3.35;67.34
80945;BME280;70400;50.934;11.590;2024-01-30T02:38:00;101476.75;;;3.37;67.36
80945;BME280;70400;50.934;11.590;2024-01-30T02:38:51;101475.03;;;3.36;67.34
80945;BME280;70400;50.934;11.590;2024-01-30T02:39:42;101476.25;;;3.27;67.95
80945;BME280;70400;50.934;11.590;2024-01-30T02:40:33;101472.94;;;3.23;68.07
80945;BME280;70400;50.934;11.590;2024-01-30T02:41:24;101470.03;;;3.31;67.91
80945;BME280;70400;50.934;11.590;2024-01-30T02:42:15;101464.06;;;3.28;67.95
80945;BME280;70400;50.934;11.590;2024-01-30T02:43:05;101468.44;;;3.27;67.98
80945;BME280;70400;50.934;11.590;2024-01-30T02:43:56;101466.63;;;3.29;67.87
80945;BME280;70400;50.934;11.590;2024-01-30T02:44:47;101468.38;;;3.29;67.85
80945;BME280;70400;50.934;11.590;2024-01-30T02:45:38;101472.81;;;3.26;67.74
80945;BME280;70400;50.934;11.590;2024-01-30T02:46:29;101463.66;;;3.16;68.35
80945;BME280;70400;50.934;11.590;2024-01-30T02:47:20;101463.09;;;3.08;68.49
80945;BME280;70400;50.934;11.590;2024-01-30T02:48:11;101468.31;;;3.08;68.48
80945;BME280;70400;50.934;11.590;2024-01-30T02:49:02;101462.84;;;3.14;68.46
80945;BME280;70400;50.934;11.590;2024-01-30T02:49:53;101460.28;;;3.13;68.48
80945;BME280;70400;50.934;11.590;2024-01-30T02:50:46;101471.63;;;3.12;68.75
80945;BME280;70400;50.934;11.590;2024-01-30T02:51:37;101468.31;;;3.08;68.31
80945;BME280;70400;50.934;11.590;2024-01-30T02:52:28;101468.53;;;3.02;68.66
80945;BME280;70400;50.934;11.590;2024-01-30T02:53:19;101472.06;;;3.01;68.86
80945;BME280;70400;50.934;11.590;2024-01-30T02:54:10;101470.25;;;3.03;68.84
80945;BME280;70400;50.934;11.590;2024-01-30T02:55:01;101468.69;;;2.97;68.94
80945;BME280;70400;50.934;11.590;2024-01-30T02:55:53;101473.75;;;3.02;69.09
80945;BME280;70400;50.934;11.590;2024-01-30T02:56:44;101470.25;;;3.03;68.45
80945;BME280;70400;50.934;11.590;2024-01-30T02:57:35;101468.53;;;3.02;68.63
80945;BME280;70400;50.934;11.590;2024-01-30T02:58:26;101466.59;;;3.07;68.84
80945;BME280;70400;50.934;11.590;2024-01-30T02:59:17;101468.66;;;2.99;68.46
80945;BME280;70400;50.934;11.590;2024-01-30T03:00:09;101468.78;;;2.96;68.52
80945;BME280;70400;50.934;11.590;2024-01-30T03:01:00;101463.91;;;2.87;69.05
80945;BME280;70400;50.934;11.590;2024-01-30T03:01:51;101473.88;;;2.99;68.99
80945;BME280;70400;50.934;11.590;2024-01-30T03:02:42;101468.81;;;2.94;69.15
80945;BME280;70400;50.934;11.590;2024-01-30T03:03:33;101471.00;;;3.05;69.08
80945;BME280;70400;50.934;11.590;2024-01-30T03:04:26;101473.13;;;2.95;68.58
80945;BME280;70400;50.934;11.590;2024-01-30T03:05:17;101465.13;;;3.00;68.51
80945;BME280;70400;50.934;11.590;2024-01-30T03:06:08;101469.56;;;2.98;68.68
80945;BME280;70400;50.934;11.590;2024-01-30T03:06:59;101469.63;;;2.96;68.58
80945;BME280;70400;50.934;11.590;2024-01-30T03:07:50;101467.81;;;2.98;68.32
80945;BME280;70400;50.934;11.590;2024-01-30T03:08:41;101464.06;;;3.06;68.31
80945;BME280;70400;50.934;11.590;2024-01-30T03:09:32;101466.47;;;3.10;68.25
80945;BME280;70400;50.934;11.590;2024-01-30T03:10:22;101473.44;;;3.10;68.21
80945;BME280;70400;50.934;11.590;2024-01-30T03:11:13;101464.53;;;3.15;68.29
80945;BME280;70400;50.934;11.590;2024-01-30T03:12:05;101464.53;;;3.15;67.72
80945;BME280;70400;50.934;11.590;2024-01-30T03:13:00;101466.13;;;3.19;67.59
80945;BME280;70400;50.934;11.590;2024-01-30T03:13:51;101468.75;;;3.19;67.85
80945;BME280;70400;50.934;11.590;2024-01-30T03:14:41;101471.09;;;3.25;67.56
80945;BME280;70400;50.934;11.590;2024-01-30T03:15:32;101467.72;;;3.23;67.32
80945;BME280;70400;50.934;11.590;2024-01-30T03:16:23;101466.13;;;3.19;67.54
80945;BME280;70400;50.934;11.590;2024-01-30T03:17:15;101465.59;;;3.11;67.67
80945;BME280;70400;50.934;11.590;2024-01-30T03:18:06;101470.78;;;3.11;67.87
80945;BME280;70400;50.934;11.590;2024-01-30T03:18:57;101460.25;;;3.14;67.76
80945;BME280;70400;50.934;11.590;2024-01-30T03:19:48;101459.44;;;3.12;67.96
80945;BME280;70400;50.934;11.590;2024-01-30T03:20:39;101470.00;;;3.09;67.96
80945;BME280;70400;50.934;11.590;2024-01-30T03:21:30;101468.41;;;3.05;68.25
80945;BME280;70400;50.934;11.590;2024-01-30T03:22:20;101460.28;;;3.13;68.12
80945;BME280;70400;50.934;11.590;2024-01-30T03:23:11;101460.41;;;3.10;68.11
80945;BME280;70400;50.934;11.590;2024-01-30T03:24:02;101462.34;;;3.04;68.17
80945;BME280;70400;50.934;11.590;2024-01-30T03:24:53;101466.72;;;3.04;68.43
80945;BME280;70400;50.934;11.590;2024-01-30T03:25:44;101460.59;;;3.05;67.91
80945;BME280;70400;50.934;11.590;2024-01-30T03:26:35;101467.38;;;3.09;68.21
80945;BME280;70400;50.934;11.590;2024-01-30T03:27:25;101452.78;;;3.05;68.21
80945;BME280;70400;50.934;11.590;2024-01-30T03:28:16;101457.13;;;3.04;68.05
80945;BME280;70400;50.934;11.590;2024-01-30T03:29:07;101457.97;;;3.05;68.29
80945;BME280;70400;50.934;11.590;2024-01-30T03:29:58;101454.63;;;3.03;68.20
80945;BME280;70400;50.934;11.590;2024-01-30T03:30:49;101448.47;;;3.04;68.42
80945;BME280;70400;50.934;11.590;2024-01-30T03:31:40;101452.91;;;3.02;68.13
80945;BME280;70400;50.934;11.590;2024-01-30T03:32:31;101449.69;;;2.95;68.58
80945;BME280;70400;50.934;11.590;2024-01-30T03:33:22;101458.53;;;2.91;68.50
80945;BME280;70400;50.934;11.590;2024-01-30T03:34:12;101453.13;;;2.96;68.22
80945;BME280;70400;50.934;11.590;2024-01-30T03:35:03;101453.34;;;2.90;68.95
80945;BME280;70400;50.934;11.590;2024-01-30T03:35:54;101463.84;;;2.88;68.68
80945;BME280;70400;50.934;11.590;2024-01-30T03:36:45;101460.59;;;2.81;69.13
80945;BME280;70400;50.934;11.590;2024-01-30T03:37:36;101455.34;;;2.83;69.16
80945;BME280;70400;50.934;11.590;2024-01-30T03:38:27;101454.31;;;2.87;68.82
80945;BME280;70400;50.934;11.590;2024-01-30T03:39:18;101453.59;;;2.83;69.22
80945;BME280;70400;50.934;11.590;2024-01-30T03:40:09;101457.97;;;2.83;68.96
80945;BME280;70400;50.934;11.590;2024-01-30T03:41:01;101451.13;;;2.80;69.06
80945;BME280;70400;50.934;11.590;2024-01-30T03:41:51;101453.63;;;2.82;69.49
80945;BME280;70400;50.934;11.590;2024-01-30T03:42:42;101460.69;;;2.80;69.22
80945;BME280;70400;50.934;11.590;2024-01-30T03:43:33;101452.78;;;2.81;69.21
80945;BME280;70400;50.934;11.590;2024-01-30T03:44:24;101447.66;;;2.80;69.56
80945;BME280;70400;50.934;11.590;2024-01-30T03:45:15;101450.19;;;2.81;69.16
80945;BME280;70400;50.934;11.590;2024-01-30T03:46:06;101441.50;;;2.82;69.26
80945;BME280;70400;50.934;11.590;2024-01-30T03:46:57;101443.41;;;2.77;69.39
80945;BME280;70400;50.934;11.590;2024-01-30T03:47:48;101444.53;;;2.70;69.99
80945;BME280;70400;50.934;11.590;2024-01-30T03:48:40;101446.22;;;2.71;69.74
80945;BME280;70400;50.934;11.590;2024-01-30T03:49:31;101450.59;;;2.71;69.91
80945;BME280;70400;50.934;11.590;2024-01-30T03:50:22;101442.81;;;2.69;69.89
80945;BME280;70400;50.934;11.590;2024-01-30T03:51:13;101443.59;;;2.73;69.97
80945;BME280;70400;50.934;11.590;2024-01-30T03:52:05;101442.91;;;2.68;70.35
80945;BME280;70400;50.934;11.590;2024-01-30T03:52:56;101435.09;;;2.68;70.01
80945;BME280;70400;50.934;11.590;2024-01-30T03:53:47;101443.59;;;2.73;70.09
80945;BME280;70400;50.934;11.590;2024-01-30T03:54:38;101443.69;;;2.70;70.11
80945;BME280;70400;50.934;11.590;2024-01-30T03:55:29;101437.63;;;2.69;69.72
80945;BME280;70400;50.934;11.590;2024-01-30T03:56:20;101441.09;;;2.70;69.86
80945;BME280;70400;50.934;11.590;2024-01-30T03:57:11;101442.91;;;2.68;70.30
80945;BME280;70400;50.934;11.590;2024-01-30T03:58:02;101449.13;;;2.64;70.18
80945;BME280;70400;50.934;11.590;2024-01-30T03:58:54;101446.41;;;2.67;70.32
80945;BME280;70400;50.934;11.590;2024-01-30T03:59:45;101442.94;;;2.66;69.88
80945;BME280;70400;50.934;11.590;2024-01-30T04:00:35;101447.31;;;2.66;70.01
80945;BME280;70400;50.934;11.590;2024-01-30T04:01:26;101442.25;;;2.61;70.41
80945;BME280;70400;50.934;11.590;2024-01-30T04:02:17;101452.53;;;2.66;70.28
80945;BME280;70400;50.934;11.590;2024-01-30T04:03:09;101446.47;;;2.65;70.34
80945;BME280;70400;50.934;11.590;2024-01-30T04:04:00;101444.66;;;2.67;69.98
80945;BME280;70400;50.934;11.590;2024-01-30T04:04:50;101445.56;;;2.66;70.10
80945;BME280;70400;50.934;11.590;2024-01-30T04:05:42;101445.38;;;2.71;69.92
80945;BME280;70400;50.934;11.590;2024-01-30T04:06:33;101446.34;;;2.68;69.67
80945;BME280;70400;50.934;11.590;2024-01-30T04:07:23;101442.91;;;2.68;69.79
80945;BME280;70400;50.934;11.590;2024-01-30T04:08:15;101443.78;;;2.67;69.99
80945;BME280;70400;50.934;11.590;2024-01-30T04:09:06;101438.66;;;2.65;69.87
80945;BME280;70400;50.934;11.590;2024-01-30T04:09:57;101438.66;;;2.65;70.19
80945;BME280;70400;50.934;11.590;2024-01-30T04:10:48;101441.09;;;2.70;69.71
80945;BME280;70400;50.934;11.590;2024-01-30T04:11:39;101440.31;;;2.68;70.29
80945;BME280;70400;50.934;11.590;2024-01-30T04:12:30;101440.31;;;2.68;69.85
80945;BME280;70400;50.934;11.590;2024-01-30T04:13:21;101441.13;;;2.68;70.27
80945;BME280;70400;50.934;11.590;2024-01-30T04:14:12;101444.19;;;2.56;70.60
80945;BME280;70400;50.934;11.590;2024-01-30T04:15:03;101445.16;;;2.53;70.70
80945;BME280;70400;50.934;11.590;2024-01-30T04:15:54;101444.22;;;2.54;70.85
80945;BME280;70400;50.934;11.590;2024-01-30T04:16:49;101448.56;;;2.55;70.94
80945;BME280;70400;50.934;11.590;2024-01-30T04:17:40;101443.56;;;2.49;70.79
80945;BME280;70400;50.934;11.590;2024-01-30T04:18:31;101437.47;;;2.50;70.91
80945;BME280;70400;50.934;11.590;2024-01-30T04:19:22;101444.50;;;2.47;71.09
80945;BME280;70400;50.934;11.590;2024-01-30T04:20:17;101448.16;;;2.43;71.40
80945;BME280;70400;50.934;11.590;2024-01-30T04:21:08;101445.84;;;2.33;71.71
80945;BME280;70400;50.934;11.590;2024-01-30T04:21:59;101450.94;;;2.36;71.79
80945;BME280;70400;50.934;11.590;2024-01-30T04:22:50;101449.31;;;2.34;71.72
80945;BME280;70400;50.934;11.590;2024-01-30T04:23:41;101451.19;;;2.30;71.99
80945;BME280;70400;50.934;11.590;2024-01-30T04:24:32;101450.25;;;2.31;71.91
80945;BME280;70400;50.934;11.590;2024-01-30T04:25:23;101452.72;;;2.36;72.12
80945;BME280;70400;50.934;11.590;2024-01-30T04:26:14;101451.03;;;2.35;71.70
80945;BME280;70400;50.934;11.590;2024-01-30T04:27:05;101454.50;;;2.34;71.80
80945;BME280;70400;50.934;11.590;2024-01-30T04:27:56;101449.56;;;2.26;71.87